Time;durP1;ratioP1;P1;durP2;ratioP2;P2;SDS_P1;SDS_P2;PMS_P1;PMS_P2;Temp;Humidity;BMP_temperature;BMP_pressure;BME280_temperature;BME280_humidity;BME280_pressure;Samples;Min_cycle;Max_cycle;Signal;HPM_P1;HPM_P2
2023/07/26 00:00:53;;;;;;;3.80;3.10;;;;;;;;;;5053996;28;20194;-80
2023/07/26 00:03:19;;;;;;;6.20;3.10;;;;;;;;;;5054509;28;20172;-80
2023/07/26 00:05:47;;;;;;;4.27;3.23;;;;;;;;;;5037704;28;20187;-80
2023/07/26 00:08:13;;;;;;;10.03;3.73;;;;;;;;;;5037663;28;20301;-81
2023/07/26 00:10:39;;;;;;;5.80;3.60;;;;;;;;;;5054126;28;20176;-80
2023/07/26 00:13:05;;;;;;;9.03;3.63;;;;;;;;;;5037326;28;20239;-80
2023/07/26 00:15:31;;;;;;;5.50;3.53;;;;;;;;;;5053897;28;20179;-80
2023/07/26 00:17:57;;;;;;;9.20;3.27;;;;;;;;;;5054032;28;20172;-80
2023/07/26 00:20:23;;;;;;;6.13;3.60;;;;;;;;;;5037167;28;20180;-80
2023/07/26 00:22:49;;;;;;;7.53;3.63;;;;;;;;;;5037084;28;20274;-80
2023/07/26 00:25:15;;;;;;;7.00;3.70;;;;;;;;;;5037222;28;20184;-80
2023/07/26 00:27:41;;;;;;;5.73;3.63;;;;;;;;;;5053705;28;20287;-80
2023/07/26 00:30:08;;;;;;;5.70;3.70;;;;;;;;;;5036668;28;20219;-80
2023/07/26 00:32:34;;;;;;;5.53;3.80;;;;;;;;;;5037193;28;20199;-80
2023/07/26 00:35:00;;;;;;;8.77;3.83;;;;;;;;;;5053498;28;20176;-80
2023/07/26 00:37:28;;;;;;;5.30;4.17;;;;;;;;;;5053603;28;20176;-80
2023/07/26 00:39:54;;;;;;;7.70;4.40;;;;;;;;;;5037397;28;20214;-88
2023/07/26 00:42:21;;;;;;;7.23;4.30;;;;;;;;;;5053620;28;20188;-88
2023/07/26 00:44:47;;;;;;;7.10;4.40;;;;;;;;;;5053316;28;20266;-88
2023/07/26 00:47:13;;;;;;;6.53;4.67;;;;;;;;;;5053662;28;20183;-88
2023/07/26 00:49:39;;;;;;;7.43;4.60;;;;;;;;;;5053489;28;20275;-88
2023/07/26 00:52:05;;;;;;;8.63;4.73;;;;;;;;;;5053339;28;20176;-88
2023/07/26 00:54:32;;;;;;;6.83;4.77;;;;;;;;;;5036948;28;20191;-88
2023/07/26 00:56:58;;;;;;;7.13;5.17;;;;;;;;;;5053204;28;20176;-88
2023/07/26 00:59:24;;;;;;;6.43;4.80;;;;;;;;;;5053099;28;20275;-88
2023/07/26 01:01:50;;;;;;;6.67;4.70;;;;;;;;;;5053156;28;20175;-88
2023/07/26 01:04:16;;;;;;;5.63;5.10;;;;;;;;;;5053408;28;20219;-89
2023/07/26 01:07:01;;;;;;;6.77;5.53;;;;;;;;;;5036432;28;20192;-88
2023/07/26 01:09:34;;;;;;;6.30;4.90;;;;;;;;;;5052935;28;20204;-88
2023/07/26 01:12:06;;;;;;;7.07;5.47;;;;;;;;;;5052930;28;20319;-80
2023/07/26 01:14:47;;;;;;;6.63;5.13;;;;;;;;;;5052726;28;20187;-80
2023/07/26 01:17:13;;;;;;;5.27;4.73;;;;;;;;;;5053132;28;20176;-80
2023/07/26 01:19:41;;;;;;;6.30;4.83;;;;;;;;;;5053004;28;20199;-80
2023/07/26 01:22:07;;;;;;;6.27;4.97;;;;;;;;;;5052904;28;20176;-80
2023/07/26 01:24:33;;;;;;;7.30;4.93;;;;;;;;;;5052630;28;20187;-80
2023/07/26 01:26:59;;;;;;;7.17;5.50;;;;;;;;;;5052847;28;20176;-80
2023/07/26 01:29:28;;;;;;;6.60;5.20;;;;;;;;;;5053010;28;20212;-80
2023/07/26 01:31:54;;;;;;;5.20;4.70;;;;;;;;;;5036629;28;20230;-80
2023/07/26 01:34:20;;;;;;;5.93;5.33;;;;;;;;;;5036160;28;20180;-80
2023/07/26 01:36:47;;;;;;;8.03;5.07;;;;;;;;;;5035990;28;20230;-80
2023/07/26 01:39:13;;;;;;;8.00;4.90;;;;;;;;;;5036069;28;20190;-80
2023/07/26 01:41:40;;;;;;;5.03;4.50;;;;;;;;;;5052507;28;20218;-80
2023/07/26 01:44:06;;;;;;;6.00;4.17;;;;;;;;;;5052508;28;20187;-80
2023/07/26 01:46:32;;;;;;;5.57;4.70;;;;;;;;;;5036068;28;20198;-80
2023/07/26 01:49:01;;;;;;;5.27;4.67;;;;;;;;;;5054861;28;20249;-80
2023/07/26 01:51:27;;;;;;;5.87;4.50;;;;;;;;;;5056687;28;20267;-80
2023/07/26 01:53:53;;;;;;;4.40;4.00;;;;;;;;;;5040156;28;20211;-80
2023/07/26 01:56:19;;;;;;;5.20;4.70;;;;;;;;;;5040296;28;20187;-80
2023/07/26 01:58:45;;;;;;;5.67;4.10;;;;;;;;;;5056453;28;20214;-80
2023/07/26 02:01:11;;;;;;;4.57;3.80;;;;;;;;;;5039887;28;20179;-80
2023/07/26 02:03:38;;;;;;;5.47;4.60;;;;;;;;;;5056238;28;20183;-80
2023/07/26 02:06:04;;;;;;;4.90;4.40;;;;;;;;;;5040108;28;20251;-80
2023/07/26 02:08:30;;;;;;;5.43;4.40;;;;;;;;;;5039592;28;20213;-80
2023/07/26 02:10:56;;;;;;;4.67;4.27;;;;;;;;;;5056507;28;20199;-80
2023/07/26 02:13:22;;;;;;;5.67;4.50;;;;;;;;;;5056276;28;20230;-80
2023/07/26 02:15:48;;;;;;;6.93;4.57;;;;;;;;;;5056336;28;20270;-80
2023/07/26 02:18:14;;;;;;;6.50;4.80;;;;;;;;;;5056332;28;20237;-80
2023/07/26 02:20:40;;;;;;;5.70;5.20;;;;;;;;;;5039474;28;20184;-80
2023/07/26 02:23:06;;;;;;;6.47;5.10;;;;;;;;;;5039746;28;20184;-80
2023/07/26 02:25:33;;;;;;;9.30;5.87;;;;;;;;;;5039469;28;20180;-80
2023/07/26 02:28:01;;;;;;;6.10;5.60;;;;;;;;;;5055879;28;20286;-80
2023/07/26 02:30:27;;;;;;;5.73;5.07;;;;;;;;;;5055987;28;20172;-80
2023/07/26 02:32:53;;;;;;;6.40;5.67;;;;;;;;;;5039220;28;20189;-80
2023/07/26 02:35:19;;;;;;;6.20;5.60;;;;;;;;;;5056263;28;20176;-80
2023/07/26 02:37:45;;;;;;;5.97;5.43;;;;;;;;;;5055841;28;20184;-80
2023/07/26 02:40:12;;;;;;;6.10;5.50;;;;;;;;;;5039275;28;20193;-80
2023/07/26 02:42:38;;;;;;;6.53;5.90;;;;;;;;;;5039345;28;20184;-80
2023/07/26 02:45:04;;;;;;;6.17;5.67;;;;;;;;;;5039400;28;20191;-80
2023/07/26 02:47:32;;;;;;;8.70;6.37;;;;;;;;;;5055543;28;20180;-80
2023/07/26 02:50:04;;;;;;;6.13;5.53;;;;;;;;;;5055542;28;20217;-80
2023/07/26 02:52:32;;;;;;;6.63;5.93;;;;;;;;;;5039275;28;20266;-80
2023/07/26 02:54:58;;;;;;;7.07;6.03;;;;;;;;;;5055362;28;20208;-80
2023/07/26 02:57:24;;;;;;;6.60;5.93;;;;;;;;;;5055344;28;20211;-80
2023/07/26 02:59:53;;;;;;;6.73;6.00;;;;;;;;;;5055261;28;20188;-80
2023/07/26 03:02:19;;;;;;;6.87;5.87;;;;;;;;;;5055412;28;20222;-80
2023/07/26 03:04:45;;;;;;;6.17;5.60;;;;;;;;;;5038857;28;20184;-80
2023/07/26 03:07:11;;;;;;;6.60;6.00;;;;;;;;;;5055362;28;20186;-80
2023/07/26 03:09:40;;;;;;;6.60;5.90;;;;;;;;;;5055070;28;20231;-80
2023/07/26 03:12:06;;;;;;;6.67;6.00;;;;;;;;;;5055123;28;20228;-80
2023/07/26 03:14:33;;;;;;;7.27;6.27;;;;;;;;;;5055015;28;20202;-80
2023/07/26 03:16:59;;;;;;;6.00;5.50;;;;;;;;;;5055361;28;20184;-80
2023/07/26 03:19:25;;;;;;;6.50;5.90;;;;;;;;;;5055185;28;20176;-80
2023/07/26 03:21:51;;;;;;;6.67;6.07;;;;;;;;;;5055021;28;20183;-80
2023/07/26 03:24:17;;;;;;;6.70;5.90;;;;;;;;;;5055134;28;20179;-80
2023/07/26 03:26:43;;;;;;;7.20;6.00;;;;;;;;;;5038418;28;20192;-80
2023/07/26 03:29:09;;;;;;;6.40;5.70;;;;;;;;;;5054818;28;20372;-80
2023/07/26 03:31:38;;;;;;;6.30;5.70;;;;;;;;;;5038229;28;20183;-80
2023/07/26 03:34:04;;;;;;;6.87;6.10;;;;;;;;;;5038386;28;20187;-80
2023/07/26 03:36:30;;;;;;;7.10;6.40;;;;;;;;;;5038181;28;20208;-80
2023/07/26 03:38:56;;;;;;;7.80;6.67;;;;;;;;;;5054613;28;20188;-80
2023/07/26 03:41:22;;;;;;;8.17;6.80;;;;;;;;;;5038367;28;20180;-80
2023/07/26 03:43:48;;;;;;;8.03;7.33;;;;;;;;;;5054515;28;20176;-80
2023/07/26 03:46:16;;;;;;;8.43;7.53;;;;;;;;;;5054770;28;20243;-80
2023/07/26 03:48:42;;;;;;;7.00;6.40;;;;;;;;;;5054596;28;20223;-80
2023/07/26 03:51:09;;;;;;;8.03;7.33;;;;;;;;;;5037914;28;20176;-80
2023/07/26 03:53:35;;;;;;;8.10;7.30;;;;;;;;;;5054474;28;20183;-80
2023/07/26 03:56:01;;;;;;;9.63;8.13;;;;;;;;;;5037762;28;20176;-80
2023/07/26 03:58:27;;;;;;;7.90;7.20;;;;;;;;;;5054207;28;20183;-80
2023/07/26 04:00:53;;;;;;;8.30;7.50;;;;;;;;;;5054605;28;20184;-88
2023/07/26 04:03:19;;;;;;;7.83;7.13;;;;;;;;;;5054601;28;20206;-88
2023/07/26 04:05:45;;;;;;;9.73;7.67;;;;;;;;;;5054175;28;20230;-88
2023/07/26 04:08:11;;;;;;;7.90;6.83;;;;;;;;;;5054133;28;20191;-88
2023/07/26 04:10:38;;;;;;;7.40;6.80;;;;;;;;;;5053855;28;20176;-88
2023/07/26 04:13:04;;;;;;;6.60;6.00;;;;;;;;;;5054389;28;20231;-88
2023/07/26 04:15:30;;;;;;;7.87;5.83;;;;;;;;;;5054355;28;20263;-88
2023/07/26 04:17:56;;;;;;;5.77;5.27;;;;;;;;;;5057412;28;20180;-88
2023/07/26 04:20:23;;;;;;;5.87;5.37;;;;;;;;;;5059295;28;20183;-88
2023/07/26 04:22:49;;;;;;;5.83;5.23;;;;;;;;;;5059502;28;20187;-88
2023/07/26 04:25:15;;;;;;;5.43;4.93;;;;;;;;;;5059320;28;20205;-88
2023/07/26 04:27:41;;;;;;;7.73;5.33;;;;;;;;;;5040276;28;20298;-88
2023/07/26 04:30:08;;;;;;;6.87;5.50;;;;;;;;;;5054718;28;20261;-88
2023/07/26 04:32:34;;;;;;;6.17;5.00;;;;;;;;;;5053974;28;20168;-88
2023/07/26 04:35:03;;;;;;;5.60;5.10;;;;;;;;;;5037263;28;20184;-88
2023/07/26 04:37:29;;;;;;;5.70;4.70;;;;;;;;;;5053553;28;20180;-88
2023/07/26 04:39:55;;;;;;;5.60;5.03;;;;;;;;;;5037099;28;20192;-88
2023/07/26 04:42:21;;;;;;;5.30;4.80;;;;;;;;;;5053790;28;20211;-88
2023/07/26 04:44:47;;;;;;;7.73;5.60;;;;;;;;;;5053780;28;20191;-87
2023/07/26 04:47:15;;;;;;;6.70;5.70;;;;;;;;;;5037331;28;20266;-88
2023/07/26 04:49:41;;;;;;;6.47;5.53;;;;;;;;;;5053746;28;20238;-88
2023/07/26 04:52:07;;;;;;;7.70;5.60;;;;;;;;;;5053644;28;20172;-88
2023/07/26 04:54:33;;;;;;;7.73;5.40;;;;;;;;;;5037009;28;20195;-88
2023/07/26 04:56:59;;;;;;;8.83;6.17;;;;;;;;;;5053282;28;20203;-88
2023/07/26 04:59:25;;;;;;;6.60;5.40;;;;;;;;;;5036505;28;20190;-88
2023/07/26 05:01:51;;;;;;;7.93;6.30;;;;;;;;;;5053140;28;20176;-88
2023/07/26 05:04:17;;;;;;;8.43;6.93;;;;;;;;;;5053199;28;20176;-88
2023/07/26 05:06:43;;;;;;;9.97;7.83;;;;;;;;;;5053053;28;20180;-87
2023/07/26 05:09:09;;;;;;;11.57;10.53;;;;;;;;;;5036448;28;20212;-88
2023/07/26 05:11:36;;;;;;;11.80;10.77;;;;;;;;;;5036413;28;20306;-88
2023/07/26 05:14:02;;;;;;;12.50;11.30;;;;;;;;;;5053422;28;20176;-87
2023/07/26 05:16:28;;;;;;;12.30;11.10;;;;;;;;;;5036670;28;20180;-87
2023/07/26 05:18:57;;;;;;;12.83;11.67;;;;;;;;;;5053068;28;20210;-87
2023/07/26 05:21:24;;;;;;;13.43;11.80;;;;;;;;;;5052957;28;20226;-88
2023/07/26 05:23:50;;;;;;;12.20;11.00;;;;;;;;;;5035522;28;20206;-88
2023/07/26 05:26:16;;;;;;;13.60;11.20;;;;;;;;;;5053129;28;20179;-88
2023/07/26 05:28:42;;;;;;;13.63;11.73;;;;;;;;;;5052917;28;20215;-88
2023/07/26 05:31:08;;;;;;;12.90;11.53;;;;;;;;;;5052853;28;20171;-88
2023/07/26 05:33:34;;;;;;;12.43;11.23;;;;;;;;;;5036132;28;20187;-88
2023/07/26 05:36:00;;;;;;;12.57;11.33;;;;;;;;;;5052954;28;20180;-89
2023/07/26 05:38:26;;;;;;;12.20;11.03;;;;;;;;;;5036016;28;20184;-88
2023/07/26 05:40:52;;;;;;;12.60;11.10;;;;;;;;;;5036136;28;20237;-88
2023/07/26 05:43:19;;;;;;;11.97;10.67;;;;;;;;;;5052513;28;20184;-88
2023/07/26 05:45:45;;;;;;;12.57;11.27;;;;;;;;;;5052351;28;20216;-88
2023/07/26 05:48:11;;;;;;;13.90;11.63;;;;;;;;;;5052539;28;20270;-88
2023/07/26 05:50:37;;;;;;;12.47;11.17;;;;;;;;;;5035918;28;20179;-88
2023/07/26 05:53:03;;;;;;;12.30;11.10;;;;;;;;;;5052496;28;20184;-88
2023/07/26 05:55:29;;;;;;;12.90;11.80;;;;;;;;;;5052754;28;20176;-87
2023/07/26 05:57:55;;;;;;;12.73;10.97;;;;;;;;;;5036034;28;20241;-88
2023/07/26 06:00:21;;;;;;;11.90;10.70;;;;;;;;;;5052369;28;20183;-87
2023/07/26 06:02:47;;;;;;;12.17;11.10;;;;;;;;;;5035930;28;20275;-87
2023/07/26 06:05:13;;;;;;;13.17;11.60;;;;;;;;;;5052381;28;20180;-88
2023/07/26 06:07:39;;;;;;;11.77;10.57;;;;;;;;;;5035717;28;20279;-88
2023/07/26 06:10:06;;;;;;;12.23;10.90;;;;;;;;;;5052549;28;20208;-88
2023/07/26 06:12:32;;;;;;;13.73;11.43;;;;;;;;;;5052248;28;20231;-87
2023/07/26 06:14:58;;;;;;;13.00;11.63;;;;;;;;;;5035905;28;20180;-87
2023/07/26 06:17:25;;;;;;;11.73;10.53;;;;;;;;;;5052050;28;20176;-89
2023/07/26 06:19:51;;;;;;;12.33;11.07;;;;;;;;;;5052337;28;20187;-88
2023/07/26 06:22:17;;;;;;;11.50;10.40;;;;;;;;;;5035618;28;20184;-88
2023/07/26 06:24:43;;;;;;;12.13;10.47;;;;;;;;;;5052583;28;20188;-87
2023/07/26 06:27:09;;;;;;;12.17;10.70;;;;;;;;;;5052250;28;20275;-88
2023/07/26 06:29:36;;;;;;;11.80;9.70;;;;;;;;;;5052472;28;20208;-88
2023/07/26 06:32:03;;;;;;;11.70;10.70;;;;;;;;;;5052142;28;20180;-88
2023/07/26 06:34:32;;;;;;;12.60;10.17;;;;;;;;;;5037341;28;20180;-88
2023/07/26 06:36:58;;;;;;;11.80;10.60;;;;;;;;;;5055830;28;20172;-87
2023/07/26 06:39:26;;;;;;;11.63;10.47;;;;;;;;;;5039304;28;20244;-88
2023/07/26 06:41:52;;;;;;;11.63;10.13;;;;;;;;;;5055935;28;20179;-80
2023/07/26 06:44:18;;;;;;;14.07;10.60;;;;;;;;;;5055924;28;20214;-80
2023/07/26 06:46:44;;;;;;;11.37;9.43;;;;;;;;;;5055705;28;20229;-80
2023/07/26 06:49:11;;;;;;;11.43;10.23;;;;;;;;;;5038815;28;20212;-80
2023/07/26 06:51:37;;;;;;;14.30;9.70;;;;;;;;;;5039018;28;20180;-80
2023/07/26 06:54:03;;;;;;;16.00;10.90;;;;;;;;;;5055931;28;20180;-80
2023/07/26 06:56:29;;;;;;;11.23;9.77;;;;;;;;;;5038955;28;20172;-80
2023/07/26 06:58:55;;;;;;;13.40;10.17;;;;;;;;;;5038930;28;20214;-80
2023/07/26 07:01:21;;;;;;;12.37;11.10;;;;;;;;;;5055426;28;20199;-80
2023/07/26 07:03:47;;;;;;;13.33;11.23;;;;;;;;;;5055420;28;20176;-80
2023/07/26 07:06:15;;;;;;;11.97;10.77;;;;;;;;;;5038591;28;20183;-80
2023/07/26 07:08:41;;;;;;;11.97;10.70;;;;;;;;;;5055629;28;20286;-80
2023/07/26 07:11:10;;;;;;;13.20;11.53;;;;;;;;;;5054892;28;20183;-80
2023/07/26 07:13:36;;;;;;;12.23;10.87;;;;;;;;;;5039130;28;20194;-80
2023/07/26 07:16:06;;;;;;;14.43;12.73;;;;;;;;;;5055142;28;20187;-80
2023/07/26 07:18:32;;;;;;;15.00;12.33;;;;;;;;;;5055288;28;20187;-80
2023/07/26 07:21:00;;;;;;;15.97;13.07;;;;;;;;;;5055070;28;20267;-80
2023/07/26 07:23:28;;;;;;;16.40;12.97;;;;;;;;;;5055134;28;20207;-80
2023/07/26 07:25:54;;;;;;;18.13;13.13;;;;;;;;;;5055157;28;20186;-80
2023/07/26 07:28:20;;;;;;;14.73;12.40;;;;;;;;;;5054908;28;20235;-80
2023/07/26 07:30:46;;;;;;;15.73;13.20;;;;;;;;;;5054721;28;20176;-80
2023/07/26 07:33:12;;;;;;;16.40;13.67;;;;;;;;;;5038282;28;20180;-87
2023/07/26 07:35:39;;;;;;;18.43;13.20;;;;;;;;;;5054979;28;20175;-88
2023/07/26 07:38:05;;;;;;;15.73;13.23;;;;;;;;;;5038633;28;20200;-88
2023/07/26 07:40:31;;;;;;;16.37;13.13;;;;;;;;;;5054926;28;20252;-87
2023/07/26 07:42:57;;;;;;;15.33;13.50;;;;;;;;;;5054803;28;20184;-88
2023/07/26 07:45:25;;;;;;;16.57;13.03;;;;;;;;;;5037627;28;20195;-87
2023/07/26 07:47:51;;;;;;;16.90;13.30;;;;;;;;;;5054743;28;20184;-87
2023/07/26 07:50:17;;;;;;;17.10;12.60;;;;;;;;;;5054598;28;20208;-86
2023/07/26 07:52:44;;;;;;;16.67;13.37;;;;;;;;;;5054936;28;20183;-87
2023/07/26 07:55:10;;;;;;;11.80;8.70;;;;;;;;;;5054731;28;20176;-86
2023/07/26 07:57:36;;;;;;;9.20;6.77;;;;;;;;;;5054828;28;20203;-87
2023/07/26 08:00:02;;;;;;;7.73;6.60;;;;;;;;;;5054434;28;20187;-89
2023/07/26 08:02:31;;;;;;;7.90;6.50;;;;;;;;;;5054513;28;20187;-88
2023/07/26 08:04:57;;;;;;;7.07;4.83;;;;;;;;;;5054509;28;20207;-89
2023/07/26 08:07:23;;;;;;;3.93;3.47;;;;;;;;;;5054320;28;20200;-88
2023/07/26 08:09:52;;;;;;;5.50;3.30;;;;;;;;;;5054073;28;20203;-88
2023/07/26 08:12:18;;;;;;;5.33;3.57;;;;;;;;;;5054053;28;20277;-89
2023/07/26 08:14:47;;;;;;;3.40;3.10;;;;;;;;;;5054014;28;20180;-89
2023/07/26 08:17:13;;;;;;;3.67;2.97;;;;;;;;;;5054034;28;20186;-88
2023/07/26 08:19:39;;;;;;;3.97;3.10;;;;;;;;;;5037653;28;20188;-82
2023/07/26 08:22:06;;;;;;;3.67;2.70;;;;;;;;;;5037381;28;20211;-82
2023/07/26 08:24:34;;;;;;;2.73;2.53;;;;;;;;;;5053828;28;20283;-82
2023/07/26 08:27:02;;;;;;;2.80;2.60;;;;;;;;;;5053904;28;20266;-81
2023/07/26 08:29:28;;;;;;;2.70;2.50;;;;;;;;;;5053499;28;20211;-82
2023/07/26 08:31:54;;;;;;;2.50;2.30;;;;;;;;;;5037259;28;20180;-82
2023/07/26 08:34:20;;;;;;;3.00;2.70;;;;;;;;;;5037029;28;20183;-82
2023/07/26 08:36:49;;;;;;;3.97;2.30;;;;;;;;;;5053576;28;20184;-82
2023/07/26 08:39:15;;;;;;;3.50;2.40;;;;;;;;;;5053621;28;20279;-82
2023/07/26 08:41:41;;;;;;;2.63;2.17;;;;;;;;;;5053421;28;20191;-82
2023/07/26 08:44:08;;;;;;;4.07;2.07;;;;;;;;;;5053381;28;20184;-82
2023/07/26 08:46:34;;;;;;;3.63;2.13;;;;;;;;;;5053550;28;20183;-82
2023/07/26 08:49:00;;;;;;;3.90;2.40;;;;;;;;;;5036919;28;20212;-82
2023/07/26 08:51:28;;;;;;;3.70;2.77;;;;;;;;;;5053342;28;20183;-82
2023/07/26 08:53:55;;;;;;;3.17;2.50;;;;;;;;;;5053314;28;20179;-82
2023/07/26 08:56:22;;;;;;;3.33;2.67;;;;;;;;;;5053263;28;20253;-82
2023/07/26 08:58:48;;;;;;;2.90;2.60;;;;;;;;;;5052766;28;20184;-82
2023/07/26 09:01:14;;;;;;;2.30;2.10;;;;;;;;;;5053136;28;20218;-81
2023/07/26 09:03:41;;;;;;;2.43;2.23;;;;;;;;;;5053366;28;20180;-81
2023/07/26 09:06:08;;;;;;;2.50;2.30;;;;;;;;;;5053153;28;20215;-81
2023/07/26 09:08:35;;;;;;;2.73;2.40;;;;;;;;;;5052986;28;20230;-81
2023/07/26 09:11:03;;;;;;;3.20;2.73;;;;;;;;;;5053199;28;20173;-81
2023/07/26 09:13:29;;;;;;;3.37;3.03;;;;;;;;;;5053099;28;20223;-81
2023/07/26 09:15:57;;;;;;;3.00;2.80;;;;;;;;;;5053111;28;20184;-81
2023/07/26 09:18:23;;;;;;;4.33;3.10;;;;;;;;;;5052991;28;20622;-81
2023/07/26 09:21:00;;;;;;;3.30;3.00;;;;;;;;;;5052715;28;20279;-81
2023/07/26 09:23:26;;;;;;;3.20;2.90;;;;;;;;;;5052639;28;20175;-82
2023/07/26 09:25:58;;;;;;;3.47;3.17;;;;;;;;;;5036586;28;20213;-81
2023/07/26 09:28:24;;;;;;;3.57;2.90;;;;;;;;;;5036703;28;20196;-81
2023/07/26 09:30:50;;;;;;;4.17;3.33;;;;;;;;;;5052737;28;20186;-81
2023/07/26 09:33:17;;;;;;;4.20;3.37;;;;;;;;;;5052784;28;20181;-81
2023/07/26 09:35:52;;;;;;;4.33;3.87;;;;;;;;;;5052786;28;20187;-82
2023/07/26 09:38:23;;;;;;;4.23;3.83;;;;;;;;;;5036456;28;20180;-82
2023/07/26 09:40:49;;;;;;;4.63;4.13;;;;;;;;;;5052946;28;20183;-82
2023/07/26 09:43:35;;;;;;;4.03;3.63;;;;;;;;;;5052888;28;20176;-82
2023/07/26 09:46:05;;;;;;;5.03;4.63;;;;;;;;;;5052256;28;20183;-82
2023/07/26 09:48:31;;;;;;;5.90;4.93;;;;;;;;;;5052385;28;20176;-82
2023/07/26 09:51:02;;;;;;;5.60;5.10;;;;;;;;;;5036403;28;20183;-82
2023/07/26 09:53:29;;;;;;;5.53;5.03;;;;;;;;;;5052675;28;20210;-82
2023/07/26 09:55:55;;;;;;;6.27;5.73;;;;;;;;;;5052616;28;20180;-82
2023/07/26 09:58:22;;;;;;;7.77;5.20;;;;;;;;;;5053177;28;20180;-82
2023/07/26 10:00:51;;;;;;;5.50;4.97;;;;;;;;;;5036110;28;20176;-82
2023/07/26 10:03:19;;;;;;;7.30;6.30;;;;;;;;;;5052703;28;20263;-82
2023/07/26 10:05:47;;;;;;;8.43;6.17;;;;;;;;;;5052922;28;20200;-82
2023/07/26 10:08:13;;;;;;;6.53;5.50;;;;;;;;;;5052815;28;20243;-82
2023/07/26 10:10:41;;;;;;;6.83;5.83;;;;;;;;;;5055802;28;20215;-82
2023/07/26 10:13:10;;;;;;;7.20;6.47;;;;;;;;;;5056304;28;20255;-82
2023/07/26 10:15:38;;;;;;;7.25;6.57;;;;;;;;;;5056160;28;20176;-82
2023/07/26 10:18:11;;;;;;;8.67;6.57;;;;;;;;;;5056055;28;20209;-82
2023/07/26 10:20:38;;;;;;;6.70;5.95;;;;;;;;;;5056165;28;20202;-82
2023/07/26 10:23:10;;;;;;;6.72;6.07;;;;;;;;;;5056119;28;20184;-82
2023/07/26 10:25:37;;;;;;;7.38;6.55;;;;;;;;;;5056019;28;20275;-82
2023/07/26 10:28:06;;;;;;;10.45;6.80;;;;;;;;;;5056038;28;20200;-82
2023/07/26 10:30:32;;;;;;;9.32;7.60;;;;;;;;;;5056138;28;20210;-82
2023/07/26 10:32:59;;;;;;;8.45;6.85;;;;;;;;;;5055959;28;20180;-82
2023/07/26 10:35:33;;;;;;;8.75;7.65;;;;;;;;;;5056108;28;20191;-82
2023/07/26 10:38:01;;;;;;;7.57;5.63;;;;;;;;;;5055944;28;20179;-84
2023/07/26 10:40:34;;;;;;;8.90;4.00;;;;;;;;;;5056076;28;20172;-84
2023/07/26 10:43:16;;;;;;;5.37;4.00;;;;;;;;;;5056153;28;20179;-83
2023/07/26 10:45:46;;;;;;;4.37;2.90;;;;;;;;;;5055860;28;20175;-83
2023/07/26 10:48:12;;;;;;;3.10;2.47;;;;;;;;;;5039789;28;20250;-84
2023/07/26 10:50:38;;;;;;;3.40;2.73;;;;;;;;;;5055576;28;20257;-83
2023/07/26 10:53:40;;;;;;;3.33;3.03;;;;;;;;;;5057132;28;20210;-83
2023/07/26 10:56:10;;;;;;;5.90;3.73;;;;;;;;;;4999417;28;20172;-83
2023/07/26 10:58:36;;;;;;;4.93;4.03;;;;;;;;;;5045119;28;20191;-83
2023/07/26 11:01:03;;;;;;;5.77;4.47;;;;;;;;;;5055495;28;20168;-83
2023/07/26 11:03:32;;;;;;;5.10;4.37;;;;;;;;;;5055332;28;20168;-83
2023/07/26 11:05:59;;;;;;;6.60;5.07;;;;;;;;;;5055431;28;20255;-83
2023/07/26 11:08:43;;;;;;;7.00;4.37;;;;;;;;;;5038592;28;20180;-83
2023/07/26 11:11:09;;;;;;;7.57;5.00;;;;;;;;;;5055319;28;20186;-83
2023/07/26 11:13:36;;;;;;;6.20;5.10;;;;;;;;;;5055355;28;20178;-83
2023/07/26 11:16:05;;;;;;;5.73;4.70;;;;;;;;;;5055281;28;20176;-83
2023/07/26 11:18:33;;;;;;;7.03;5.47;;;;;;;;;;5055444;28;20190;-83
2023/07/26 11:20:59;;;;;;;6.60;5.00;;;;;;;;;;5037665;28;20233;-83
2023/07/26 11:23:27;;;;;;;5.85;4.85;;;;;;;;;;5055281;28;20187;-83
2023/07/26 11:25:55;;;;;;;6.05;5.20;;;;;;;;;;5054895;28;20243;-83
2023/07/26 11:28:25;;;;;;;6.90;5.88;;;;;;;;;;5054872;28;20192;-83
2023/07/26 11:30:55;;;;;;;8.70;5.93;;;;;;;;;;5054964;28;20176;-83
2023/07/26 11:33:43;;;;;;;7.43;5.55;;;;;;;;;;5055007;28;20199;-82
2023/07/26 11:36:19;;;;;;;7.03;5.75;;;;;;;;;;5038497;28;20188;-82
2023/07/26 11:38:48;;;;;;;8.52;5.50;;;;;;;;;;5054513;28;20236;-82
2023/07/26 11:41:18;;;;;;;7.18;5.63;;;;;;;;;;5055096;28;20175;-82
2023/07/26 11:43:44;;;;;;;6.22;4.75;;;;;;;;;;5054809;28;20187;-82
2023/07/26 11:46:13;;;;;;;7.38;4.68;;;;;;;;;;5038344;28;20187;-82
2023/07/26 11:48:44;;;;;;;5.38;4.75;;;;;;;;;;5054735;28;20200;-82
2023/07/26 11:51:10;;;;;;;7.10;4.82;;;;;;;;;;5054766;28;20172;-82
2023/07/26 11:53:41;;;;;;;6.43;4.30;;;;;;;;;;5037852;28;20172;-82
2023/07/26 11:56:08;;;;;;;6.13;4.60;;;;;;;;;;5054490;28;20230;-82
2023/07/26 11:58:35;;;;;;;6.72;4.95;;;;;;;;;;5038038;28;20186;-82
2023/07/26 12:01:03;;;;;;;6.43;5.05;;;;;;;;;;5037777;28;20176;-82
2023/07/26 12:03:30;;;;;;;5.72;5.00;;;;;;;;;;5054216;28;20172;-82
2023/07/26 12:05:56;;;;;;;6.55;4.40;;;;;;;;;;5054258;28;20172;-82
2023/07/26 12:08:23;;;;;;;6.32;4.57;;;;;;;;;;5054348;28;20199;-87
2023/07/26 12:10:49;;;;;;;5.97;4.38;;;;;;;;;;5037753;28;20237;-87
2023/07/26 12:13:24;;;;;;;5.45;4.05;;;;;;;;;;5053834;28;20235;-87
2023/07/26 12:15:51;;;;;;;6.32;4.10;;;;;;;;;;5053954;28;20178;-87
2023/07/26 12:18:17;;;;;;;6.20;3.92;;;;;;;;;;5054178;28;20176;-87
2023/07/26 12:20:59;;;;;;;8.40;3.90;;;;;;;;;;5053951;28;20176;-88
2023/07/26 12:23:26;;;;;;;6.10;3.55;;;;;;;;;;5054141;28;20229;-87
2023/07/26 12:25:54;;;;;;;4.32;3.33;;;;;;;;;;5053889;28;20176;-87
2023/07/26 12:28:20;;;;;;;6.38;3.33;;;;;;;;;;5053768;28;20202;-87
2023/07/26 12:30:56;;;;;;;3.85;3.00;;;;;;;;;;5053600;28;20266;-87
2023/07/26 12:33:25;;;;;;;5.80;3.50;;;;;;;;;;5036765;28;20180;-86
2023/07/26 12:35:52;;;;;;;5.40;3.13;;;;;;;;;;5053684;28;20183;-87
2023/07/26 12:38:19;;;;;;;6.00;3.40;;;;;;;;;;5053612;28;20180;-87
2023/07/26 12:40:46;;;;;;;5.47;3.22;;;;;;;;;;5037104;28;20187;-87
2023/07/26 12:43:21;;;;;;;4.07;2.90;;;;;;;;;;5053628;28;20176;-87
2023/07/26 12:45:47;;;;;;;5.28;2.90;;;;;;;;;;5053871;28;20229;-87
2023/07/26 12:48:13;;;;;;;4.38;2.90;;;;;;;;;;5053455;28;20179;-87
2023/07/26 12:50:40;;;;;;;5.72;3.10;;;;;;;;;;5053620;28;20203;-87
2023/07/26 12:53:06;;;;;;;4.10;2.90;;;;;;;;;;5053593;28;20179;-88
2023/07/26 12:55:33;;;;;;;4.63;3.22;;;;;;;;;;5053402;28;20204;-87
2023/07/26 12:57:59;;;;;;;3.33;2.63;;;;;;;;;;5053097;28;20239;-87
2023/07/26 13:00:25;;;;;;;2.97;2.67;;;;;;;;;;5053794;28;20180;-87
2023/07/26 13:02:51;;;;;;;3.05;2.50;;;;;;;;;;5053509;28;20177;-87
2023/07/26 13:05:19;;;;;;;3.00;2.42;;;;;;;;;;5053242;28;20255;-88
2023/07/26 13:07:51;;;;;;;3.15;2.85;;;;;;;;;;5053141;28;20219;-88
2023/07/26 13:10:21;;;;;;;3.13;2.67;;;;;;;;;;5053048;28;20210;-87
2023/07/26 13:12:49;;;;;;;4.13;2.90;;;;;;;;;;5053208;28;20329;-88
2023/07/26 13:15:15;;;;;;;4.00;2.97;;;;;;;;;;5053114;28;20187;-88
2023/07/26 13:17:43;;;;;;;3.95;2.63;;;;;;;;;;5036542;28;20267;-88
2023/07/26 13:20:10;;;;;;;4.07;2.80;;;;;;;;;;5053151;28;20218;-88
2023/07/26 13:22:36;;;;;;;5.70;2.95;;;;;;;;;;5053125;28;20172;-88
2023/07/26 13:25:02;;;;;;;3.25;2.45;;;;;;;;;;5036410;28;20183;-89
2023/07/26 13:27:31;;;;;;;4.60;3.05;;;;;;;;;;5052958;28;20200;-88
2023/07/26 13:29:57;;;;;;;5.63;2.90;;;;;;;;;;5053451;28;20200;-89
2023/07/26 13:32:23;;;;;;;5.80;2.80;;;;;;;;;;5052999;28;20172;-90
2023/07/26 13:34:51;;;;;;;4.30;2.88;;;;;;;;;;5053159;28;20172;-87
2023/07/26 13:37:17;;;;;;;5.35;2.90;;;;;;;;;;5052763;28;20273;-90
2023/07/26 13:39:43;;;;;;;4.22;2.85;;;;;;;;;;5052651;28;20171;-87
2023/07/26 13:42:12;;;;;;;3.85;3.10;;;;;;;;;;5052619;28;20184;-89
2023/07/26 13:44:38;;;;;;;5.68;3.00;;;;;;;;;;5035912;28;20180;-88
2023/07/26 13:47:04;;;;;;;5.72;3.33;;;;;;;;;;5052866;28;20172;-87
2023/07/26 13:49:30;;;;;;;3.70;2.83;;;;;;;;;;5052772;28;20295;-88
2023/07/26 13:51:59;;;;;;;3.15;2.60;;;;;;;;;;5036058;28;20211;-88
2023/07/26 13:54:25;;;;;;;4.47;2.90;;;;;;;;;;5052506;28;20180;-88
2023/07/26 13:56:51;;;;;;;5.05;2.63;;;;;;;;;;5052877;28;20172;-88
2023/07/26 13:59:17;;;;;;;4.20;2.90;;;;;;;;;;5035972;28;20190;-88
2023/07/26 14:01:43;;;;;;;5.03;2.83;;;;;;;;;;5052704;28;20183;-87
2023/07/26 14:04:09;;;;;;;4.25;2.95;;;;;;;;;;5052304;28;20176;-88
2023/07/26 14:06:35;;;;;;;3.17;2.75;;;;;;;;;;5035945;28;20302;-89
2023/07/26 14:09:02;;;;;;;4.45;3.17;;;;;;;;;;5035771;28;20247;-89
2023/07/26 14:11:28;;;;;;;6.32;2.88;;;;;;;;;;5052130;28;20255;-88
2023/07/26 14:13:56;;;;;;;4.28;2.50;;;;;;;;;;5052349;28;20184;-91
2023/07/26 14:16:22;;;;;;;5.43;2.70;;;;;;;;;;5052268;28;20187;-88
2023/07/26 14:18:48;;;;;;;3.30;2.60;;;;;;;;;;5052634;28;20214;-88
2023/07/26 14:21:14;;;;;;;4.18;2.90;;;;;;;;;;5052327;28;20182;-89
2023/07/26 14:23:40;;;;;;;4.00;2.60;;;;;;;;;;5052139;28;20239;-88
2023/07/26 14:26:06;;;;;;;4.00;2.70;;;;;;;;;;5052439;28;20183;-88
2023/07/26 14:28:32;;;;;;;4.63;2.40;;;;;;;;;;5035837;28;20239;-88
2023/07/26 14:30:58;;;;;;;3.67;2.45;;;;;;;;;;5052408;28;20251;-89
2023/07/26 14:33:25;;;;;;;2.80;2.60;;;;;;;;;;5035508;28;20254;-88
2023/07/26 14:35:51;;;;;;;2.97;2.60;;;;;;;;;;5035654;28;20240;-87
2023/07/26 14:38:17;;;;;;;3.42;2.72;;;;;;;;;;5035783;28;20175;-88